createdAt,value
2022-09-15T00:01:00.926Z,100.00
2022-09-15T00:04:03.823Z,100.00
2022-09-15T00:07:06.511Z,100.00
2022-09-15T00:10:10.367Z,100.00
2022-09-15T00:13:12.846Z,100.00
2022-09-15T00:16:17.325Z,100.00
2022-09-15T00:19:19.906Z,100.00
2022-09-15T00:22:24.007Z,100.00
2022-09-15T00:25:27.248Z,100.00
2022-09-15T00:28:31.614Z,100.00
2022-09-15T00:31:34.488Z,100.00
2022-09-15T00:34:37.496Z,100.00
2022-09-15T00:37:40.167Z,100.00
2022-09-15T00:40:50.785Z,100.00
2022-09-15T00:43:53.632Z,100.00
2022-09-15T00:47:18.126Z,100.00
2022-09-15T00:50:20.956Z,100.00
2022-09-15T00:53:25.037Z,100.00
2022-09-15T00:56:28.797Z,100.00
2022-09-15T00:59:33.428Z,100.00
2022-09-15T01:02:36.697Z,100.00
2022-09-15T01:05:42.194Z,100.00
2022-09-15T01:08:47.971Z,100.00
2022-09-15T01:11:53.308Z,100.00
2022-09-15T01:14:55.667Z,100.00
2022-09-15T01:18:17.419Z,100.00
2022-09-15T01:21:24.095Z,100.00
2022-09-15T01:24:27.061Z,100.00
2022-09-15T01:27:48.350Z,100.00
2022-09-15T01:31:20.994Z,100.00
2022-09-15T01:34:26.236Z,100.00
2022-09-15T01:37:31.411Z,100.00
2022-09-15T01:40:39.285Z,100.00
2022-09-15T01:43:55.035Z,100.00
2022-09-15T01:47:03.293Z,100.00
2022-09-15T01:50:09.572Z,100.00
2022-09-15T01:53:15.231Z,100.00
2022-09-15T01:56:18.388Z,100.00
2022-09-15T01:59:20.839Z,100.00
2022-09-15T02:02:31.986Z,100.00
2022-09-15T02:05:35.356Z,100.00
2022-09-15T02:08:40.719Z,100.00
2022-09-15T02:11:52.207Z,100.00
2022-09-15T02:15:08.638Z,100.00
2022-09-15T02:18:14.176Z,100.00
2022-09-15T02:21:21.276Z,100.00
2022-09-15T02:24:30.355Z,100.00
2022-09-15T02:27:37.480Z,100.00
2022-09-15T02:30:42.034Z,100.00
2022-09-15T02:33:47.345Z,100.00
2022-09-15T02:36:53.155Z,100.00
2022-09-15T02:39:58.075Z,100.00
2022-09-15T02:43:02.290Z,100.00
2022-09-15T02:46:04.964Z,100.00
2022-09-15T02:49:07.863Z,100.00
2022-09-15T02:52:10.759Z,100.00
2022-09-15T02:55:13.945Z,100.00
2022-09-15T02:58:19.257Z,100.00
2022-09-15T03:01:26.899Z,100.00
2022-09-15T03:04:29.687Z,100.00
2022-09-15T03:07:32.772Z,100.00
2022-09-15T03:10:35.381Z,100.00
2022-09-15T03:13:38.317Z,100.00
2022-09-15T03:16:41.160Z,100.00
2022-09-15T03:19:45.133Z,100.00
2022-09-15T03:22:48.641Z,100.00
2022-09-15T03:25:51.450Z,100.00
2022-09-15T03:28:54.028Z,100.00
2022-09-15T03:31:57.263Z,100.00
2022-09-15T03:35:00.031Z,100.00
2022-09-15T03:38:03.264Z,100.00
2022-09-15T03:41:10.088Z,100.00
2022-09-15T03:44:12.792Z,100.00
2022-09-15T03:47:15.635Z,100.00
2022-09-15T03:50:19.585Z,100.00
2022-09-15T03:53:22.704Z,100.00
2022-09-15T03:56:33.542Z,100.00
2022-09-15T03:59:36.090Z,100.00
2022-09-15T04:02:38.871Z,100.00
2022-09-15T04:05:42.230Z,100.00
2022-09-15T04:08:44.976Z,100.00
2022-09-15T04:11:47.980Z,100.00
2022-09-15T04:14:50.358Z,100.00
2022-09-15T04:17:53.461Z,100.00
2022-09-15T04:21:03.333Z,100.00
2022-09-15T04:24:06.469Z,100.00
2022-09-15T04:27:09.122Z,100.00
2022-09-15T04:30:12.636Z,100.00
2022-09-15T04:33:15.192Z,100.00
2022-09-15T04:36:19.847Z,100.00
2022-09-15T04:39:22.509Z,100.00
2022-09-15T04:42:25.820Z,100.00
2022-09-15T04:45:28.726Z,100.00
2022-09-15T04:48:32.115Z,100.00
2022-09-15T04:51:34.720Z,100.00
2022-09-15T04:54:37.442Z,100.00
2022-09-15T04:57:40.001Z,100.00
2022-09-15T05:00:43.570Z,100.00
2022-09-15T05:03:46.517Z,100.00
2022-09-15T05:06:49.234Z,100.00
2022-09-15T05:09:52.180Z,100.00
2022-09-15T05:12:55.071Z,100.00
2022-09-15T05:16:03.671Z,100.00
2022-09-15T05:19:06.915Z,100.00
2022-09-15T05:22:09.426Z,100.00
2022-09-15T05:25:12.587Z,100.00
2022-09-15T05:28:15.325Z,100.00
2022-09-15T05:31:19.563Z,100.00
2022-09-15T05:34:22.347Z,100.00
2022-09-15T05:37:25.622Z,100.00
2022-09-15T05:40:28.306Z,100.00
2022-09-15T05:43:32.175Z,100.00
2022-09-15T05:46:34.726Z,100.00
2022-09-15T05:49:37.652Z,100.00
2022-09-15T05:52:40.254Z,100.00
2022-09-15T05:55:43.082Z,100.00
2022-09-15T05:58:46.913Z,100.00
2022-09-15T06:01:49.730Z,100.00
2022-09-15T06:04:52.726Z,100.00
2022-09-15T06:07:56.115Z,100.00
2022-09-15T06:11:19.807Z,100.00
2022-09-15T06:14:22.543Z,100.00
2022-09-15T06:17:25.474Z,98.14
2022-09-15T06:20:28.589Z,96.64
2022-09-15T06:23:31.467Z,96.32
2022-09-15T06:26:34.562Z,96.65
2022-09-15T06:29:37.304Z,97.39
2022-09-15T06:32:40.083Z,95.40
2022-09-15T06:35:43.448Z,94.07
2022-09-15T06:38:46.496Z,92.16
2022-09-15T06:42:02.156Z,91.18
2022-09-15T06:45:06.050Z,90.38
2022-09-15T06:48:23.849Z,89.24
2022-09-15T06:51:31.357Z,88.38
2022-09-15T06:54:34.737Z,89.99
2022-09-15T06:57:37.191Z,90.25
2022-09-15T07:00:40.067Z,91.68
2022-09-15T07:03:43.566Z,91.95
2022-09-15T07:06:46.293Z,92.42
2022-09-15T07:09:49.305Z,90.09
2022-09-15T07:12:52.049Z,86.61
2022-09-15T07:15:58.869Z,86.09
2022-09-15T07:19:03.683Z,85.37
2022-09-15T07:22:06.353Z,83.17
2022-09-15T07:25:09.350Z,77.82
2022-09-15T07:28:12.493Z,69.73
2022-09-15T07:31:16.932Z,69.57
2022-09-15T07:34:19.575Z,64.20
2022-09-15T07:37:22.293Z,65.16
2022-09-15T07:40:26.280Z,67.78
2022-09-15T07:43:29.476Z,69.91
2022-09-15T07:46:32.824Z,70.89
2022-09-15T07:49:35.612Z,70.96
2022-09-15T07:52:38.172Z,67.72
2022-09-15T07:55:41.066Z,66.80
2022-09-15T07:58:43.672Z,66.24
2022-09-15T08:01:46.790Z,66.21
2022-09-15T08:04:49.732Z,64.48
2022-09-15T08:07:52.586Z,63.60
2022-09-15T08:10:55.835Z,61.51
2022-09-15T08:14:00.371Z,62.17
2022-09-15T08:17:08.144Z,61.20
2022-09-15T08:20:13.488Z,61.49
2022-09-15T08:23:17.406Z,61.91
2022-09-15T08:26:20.202Z,62.62
2022-09-15T08:29:23.169Z,63.58
2022-09-15T08:32:25.893Z,64.29
2022-09-15T08:35:29.723Z,63.09
2022-09-15T08:38:32.676Z,61.54
2022-09-15T08:41:37.932Z,61.37
2022-09-15T08:44:43.979Z,59.19
2022-09-15T08:47:48.228Z,59.17
2022-09-15T08:50:52.438Z,57.60
2022-09-15T08:53:58.503Z,57.25
2022-09-15T08:57:01.600Z,57.60
2022-09-15T09:00:04.769Z,57.75
2022-09-15T09:03:26.701Z,55.73
2022-09-15T09:06:32.889Z,56.42
2022-09-15T09:09:35.267Z,53.26
2022-09-15T09:12:50.146Z,51.07
2022-09-15T09:16:03.894Z,49.54
2022-09-15T09:19:28.931Z,50.16
2022-09-15T09:22:35.919Z,50.70
2022-09-15T09:25:39.585Z,50.57
2022-09-15T09:28:46.289Z,51.54
2022-09-15T09:31:50.690Z,51.42
2022-09-15T09:35:15.555Z,51.60
2022-09-15T09:38:21.666Z,51.66
2022-09-15T09:41:35.777Z,51.75
2022-09-15T09:44:39.533Z,51.54
2022-09-15T09:47:43.004Z,50.64
2022-09-15T09:50:47.559Z,49.61
2022-09-15T09:53:53.548Z,48.55
2022-09-15T09:56:57.507Z,48.56
2022-09-15T10:00:00.021Z,48.63
2022-09-15T10:03:12.001Z,48.80
2022-09-15T10:06:24.842Z,48.88
2022-09-15T10:09:32.545Z,47.70
2022-09-15T10:12:40.684Z,48.65
2022-09-15T10:15:43.617Z,48.82
2022-09-15T10:18:48.994Z,49.33
2022-09-15T10:21:56.174Z,49.55
2022-09-15T10:25:00.596Z,50.14
2022-09-15T10:28:26.446Z,49.59
2022-09-15T10:31:31.551Z,49.06
2022-09-15T10:34:36.211Z,48.73
2022-09-15T10:37:55.873Z,48.01
2022-09-15T10:41:05.137Z,47.12
2022-09-15T10:44:23.111Z,46.28
2022-09-15T10:47:45.346Z,47.29
2022-09-15T10:51:07.727Z,47.54
2022-09-15T10:54:34.700Z,46.28
2022-09-15T10:58:01.952Z,46.28
2022-09-15T11:01:08.133Z,46.22
2022-09-15T11:04:11.440Z,47.02
2022-09-15T11:07:17.058Z,46.56
2022-09-15T11:10:25.869Z,46.60
2022-09-15T11:13:28.626Z,46.39
2022-09-15T11:16:34.634Z,47.35
2022-09-15T11:19:46.633Z,48.40
2022-09-15T11:23:08.209Z,49.14
2022-09-15T11:26:15.478Z,49.33
2022-09-15T11:29:36.720Z,50.48
2022-09-15T11:32:39.395Z,51.15
2022-09-15T11:35:45.341Z,52.74
2022-09-15T11:39:10.023Z,53.31
2022-09-15T11:42:22.561Z,54.48
2022-09-15T11:45:26.768Z,55.73
2022-09-15T11:48:41.041Z,56.91
2022-09-15T11:51:50.678Z,58.27
2022-09-15T11:55:05.040Z,59.96
2022-09-15T11:58:26.173Z,61.10
2022-09-15T12:01:32.524Z,61.41
2022-09-15T12:04:39.147Z,61.83
2022-09-15T12:07:46.015Z,61.36
2022-09-15T12:10:52.278Z,60.86
2022-09-15T12:13:55.734Z,60.77
2022-09-15T12:16:59.140Z,61.48
2022-09-15T12:20:05.681Z,63.17
2022-09-15T12:23:12.084Z,65.11
2022-09-15T12:26:19.390Z,67.56
2022-09-15T12:29:22.096Z,69.57
2022-09-15T12:32:28.756Z,71.87
2022-09-15T12:35:33.541Z,75.43
2022-09-15T12:38:36.155Z,78.85
2022-09-15T12:41:45.758Z,82.05
2022-09-15T12:44:48.447Z,85.41
2022-09-15T12:47:51.220Z,89.67
2022-09-15T12:50:55.285Z,95.17
2022-09-15T12:54:00.963Z,100.00
2022-09-15T12:57:04.755Z,100.00
2022-09-15T13:00:16.896Z,100.00
2022-09-15T13:03:28.874Z,100.00
2022-09-15T13:06:34.201Z,100.00
2022-09-15T13:09:44.230Z,100.00
2022-09-15T13:12:53.605Z,100.00
2022-09-15T13:15:56.954Z,100.00
2022-09-15T13:19:41.135Z,100.00
2022-09-15T13:22:45.567Z,100.00
2022-09-15T13:25:48.353Z,100.00
2022-09-15T13:28:55.579Z,100.00
2022-09-15T13:32:19.469Z,100.00
2022-09-15T13:35:31.076Z,100.00
2022-09-15T13:38:33.796Z,100.00
2022-09-15T13:41:36.489Z,100.00
2022-09-15T13:44:54.476Z,100.00
2022-09-15T13:48:11.464Z,100.00
2022-09-15T13:51:23.711Z,100.00
2022-09-15T13:54:26.119Z,100.00
2022-09-15T14:00:53.896Z,100.00
2022-09-15T14:04:03.214Z,100.00
2022-09-15T14:07:05.494Z,100.00
2022-09-15T14:10:18.911Z,100.00
2022-09-15T14:13:22.560Z,100.00
2022-09-15T14:16:30.448Z,100.00
2022-09-15T14:19:34.771Z,100.00
2022-09-15T14:22:40.658Z,100.00
2022-09-15T14:25:45.390Z,100.00
2022-09-15T14:28:49.928Z,100.00
2022-09-15T14:31:53.231Z,100.00
2022-09-15T14:34:58.959Z,100.00
2022-09-15T14:38:01.287Z,100.00
2022-09-15T14:41:05.407Z,100.00
2022-09-15T14:48:01.110Z,100.00
2022-09-15T14:51:12.247Z,100.00
2022-09-15T14:54:19.068Z,100.00
2022-09-15T14:57:26.526Z,100.00
2022-09-15T15:00:55.981Z,100.00
2022-09-15T15:04:02.456Z,100.00
2022-09-15T15:07:05.100Z,100.00
2022-09-15T15:10:14.662Z,100.00
2022-09-15T15:13:17.740Z,100.00
2022-09-15T15:16:24.177Z,100.00
2022-09-15T15:19:34.623Z,100.00
2022-09-15T15:22:38.418Z,100.00
2022-09-15T15:25:41.900Z,100.00
2022-09-15T15:28:44.157Z,100.00
2022-09-15T15:31:46.742Z,100.00
2022-09-15T15:34:58.518Z,100.00
2022-09-15T15:38:07.135Z,100.00
2022-09-15T15:41:17.984Z,100.00
2022-09-15T15:44:20.581Z,100.00
2022-09-15T15:47:24.521Z,100.00
2022-09-15T15:50:28.376Z,100.00
2022-09-15T15:53:30.944Z,100.00
2022-09-15T15:56:37.671Z,100.00
2022-09-15T15:59:40.274Z,100.00
2022-09-15T16:02:43.647Z,100.00
2022-09-15T16:05:48.051Z,100.00
2022-09-15T16:08:51.088Z,100.00
2022-09-15T16:11:54.132Z,100.00
2022-09-15T16:14:56.571Z,100.00
2022-09-15T16:17:59.611Z,100.00
2022-09-15T16:21:01.931Z,100.00
2022-09-15T16:24:04.944Z,100.00
2022-09-15T16:27:13.711Z,100.00
2022-09-15T16:30:17.534Z,100.00
2022-09-15T16:33:20.096Z,100.00
2022-09-15T16:36:22.579Z,100.00
2022-09-15T16:39:25.826Z,100.00
2022-09-15T16:42:28.407Z,100.00
2022-09-15T16:45:38.066Z,100.00
2022-09-15T16:48:44.151Z,100.00
2022-09-15T16:51:46.415Z,100.00
2022-09-15T16:54:52.192Z,100.00
2022-09-15T16:57:54.535Z,100.00
2022-09-15T17:00:57.803Z,100.00
2022-09-15T17:04:01.128Z,100.00
2022-09-15T17:07:03.651Z,100.00
2022-09-15T17:10:06.308Z,100.00
2022-09-15T17:13:11.604Z,100.00
2022-09-15T17:16:15.390Z,100.00
2022-09-15T17:19:17.995Z,100.00
2022-09-15T17:22:20.286Z,100.00
2022-09-15T17:25:37.033Z,100.00
2022-09-15T17:28:40.820Z,100.00
2022-09-15T17:31:43.521Z,100.00
2022-09-15T17:34:46.343Z,100.00
2022-09-15T17:37:49.299Z,100.00
2022-09-15T17:40:55.458Z,100.00
2022-09-15T17:43:58.308Z,100.00
2022-09-15T17:47:00.598Z,100.00
2022-09-15T17:50:03.157Z,100.00
2022-09-15T17:53:12.655Z,100.00
2022-09-15T17:56:15.471Z,100.00
2022-09-15T17:59:18.211Z,100.00
2022-09-15T18:02:21.442Z,100.00
2022-09-15T18:05:28.829Z,100.00
2022-09-15T18:08:32.915Z,100.00
2022-09-15T18:11:35.467Z,100.00
2022-09-15T18:14:38.272Z,100.00
2022-09-15T18:17:41.053Z,100.00
2022-09-15T18:20:44.157Z,100.00
2022-09-15T18:23:46.789Z,100.00
2022-09-15T18:26:49.108Z,100.00
2022-09-15T18:29:52.137Z,100.00
2022-09-15T18:32:54.425Z,100.00
2022-09-15T18:35:58.945Z,100.00
2022-09-15T18:39:01.503Z,100.00
2022-09-15T18:42:04.307Z,100.00
2022-09-15T18:45:09.351Z,100.00
2022-09-15T18:48:13.266Z,100.00
2022-09-15T18:51:23.804Z,100.00
2022-09-15T18:54:26.546Z,100.00
2022-09-15T18:57:28.964Z,100.00
2022-09-15T19:00:32.114Z,100.00
2022-09-15T19:03:34.683Z,100.00
2022-09-15T19:06:37.617Z,100.00
2022-09-15T19:09:40.157Z,100.00
2022-09-15T19:12:43.364Z,100.00
2022-09-15T19:15:48.148Z,100.00
2022-09-15T19:18:52.135Z,100.00
2022-09-15T19:21:54.737Z,100.00
2022-09-15T19:24:57.267Z,100.00
2022-09-15T19:27:59.498Z,100.00
2022-09-15T19:31:02.324Z,100.00
2022-09-15T19:34:04.866Z,100.00
2022-09-15T19:37:12.148Z,100.00
2022-09-15T19:40:18.407Z,100.00
2022-09-15T19:43:20.981Z,100.00
2022-09-15T19:46:24.297Z,100.00
2022-09-15T19:49:27.117Z,100.00
2022-09-15T19:52:31.073Z,100.00
2022-09-15T19:55:34.327Z,100.00
2022-09-15T19:58:36.707Z,100.00
2022-09-15T20:01:39.402Z,100.00
2022-09-15T20:04:42.187Z,100.00
2022-09-15T20:07:46.963Z,100.00
2022-09-15T20:10:50.187Z,100.00
2022-09-15T20:13:53.136Z,100.00
2022-09-15T20:16:58.743Z,100.00
2022-09-15T20:20:03.398Z,100.00
2022-09-15T20:23:06.096Z,100.00
2022-09-15T20:26:10.713Z,100.00
2022-09-15T20:29:13.697Z,100.00
2022-09-15T20:32:15.954Z,100.00
2022-09-15T20:35:18.496Z,100.00
2022-09-15T20:38:21.102Z,100.00
2022-09-15T20:41:25.435Z,100.00
2022-09-15T20:44:27.724Z,100.00
2022-09-15T20:47:30.229Z,100.00
2022-09-15T20:50:33.059Z,100.00
2022-09-15T20:53:35.908Z,100.00
2022-09-15T20:56:38.276Z,100.00
2022-09-15T20:59:40.957Z,100.00
2022-09-15T21:02:43.393Z,100.00
2022-09-15T21:05:46.034Z,100.00
2022-09-15T21:08:49.038Z,100.00
2022-09-15T21:11:53.607Z,100.00
2022-09-15T21:14:57.878Z,100.00
2022-09-15T21:18:03.740Z,100.00
2022-09-15T21:21:08.806Z,100.00
2022-09-15T21:24:11.332Z,100.00
2022-09-15T21:27:29.633Z,100.00
2022-09-15T21:30:32.495Z,100.00
2022-09-15T21:33:35.334Z,100.00
2022-09-15T21:36:38.079Z,100.00
2022-09-15T21:39:40.282Z,100.00
2022-09-15T21:42:42.755Z,100.00
2022-09-15T21:45:45.031Z,100.00
2022-09-15T21:48:47.839Z,100.00
2022-09-15T21:51:50.254Z,100.00
2022-09-15T21:54:53.251Z,100.00
2022-09-15T21:57:55.471Z,100.00
2022-09-15T22:00:58.108Z,100.00
2022-09-15T22:04:05.595Z,100.00
2022-09-15T22:07:07.797Z,100.00
2022-09-15T22:10:12.611Z,100.00
2022-09-15T22:13:14.907Z,100.00
2022-09-15T22:16:19.201Z,100.00
2022-09-15T22:19:21.645Z,100.00
2022-09-15T22:22:24.236Z,100.00
2022-09-15T22:25:26.762Z,100.00
2022-09-15T22:28:29.221Z,100.00
2022-09-15T22:31:31.585Z,100.00
2022-09-15T22:34:34.342Z,100.00
2022-09-15T22:37:36.733Z,100.00
2022-09-15T22:40:39.345Z,100.00
2022-09-15T22:43:42.970Z,100.00
2022-09-15T22:46:45.936Z,100.00
2022-09-15T22:49:48.269Z,100.00
2022-09-15T22:52:51.913Z,100.00
2022-09-15T22:56:04.937Z,100.00
2022-09-15T22:59:07.612Z,100.00
2022-09-15T23:02:09.930Z,100.00
2022-09-15T23:05:12.852Z,100.00
2022-09-15T23:08:15.193Z,100.00
2022-09-15T23:11:17.931Z,100.00
2022-09-15T23:14:20.239Z,100.00
2022-09-15T23:17:22.947Z,100.00
2022-09-15T23:20:25.416Z,100.00
2022-09-15T23:23:28.217Z,100.00
2022-09-15T23:26:30.398Z,100.00
2022-09-15T23:29:32.865Z,100.00
2022-09-15T23:32:35.197Z,100.00
2022-09-15T23:35:37.725Z,100.00
2022-09-15T23:38:41.217Z,100.00
2022-09-15T23:41:43.902Z,100.00
2022-09-15T23:44:46.175Z,100.00
2022-09-15T23:47:48.647Z,100.00
2022-09-15T23:50:51.111Z,100.00
2022-09-15T23:53:53.710Z,100.00
2022-09-15T23:56:55.959Z,100.00
2022-09-15T23:59:58.553Z,100.00
